Terminal Aerodrome Forecast
Issued by NWS Wilmington, OH

Current Version | Previous Version | Graphics & Text | Print | Product List | Glossary On
Versions: 1 2 3 4 5 6 7 8 9 10 11 12 13 14 15 16 17 18 19 20 21 22 23 24 25 26 27
000
FTUS41 KILN 251700 AAA
TAFCVG
TAF AMD
KCVG 251720Z 2517/2618 10012KT 2SM -SHRA BR OVC010
     FM251800 09012KT P6SM VCSH OVC015
     FM252000 06013KT 5SM -SHRA VCTS BKN008 OVC025CB
     FM252300 04012G22KT P6SM VCSH OVC008
     FM260800 02012G22KT P6SM SCT008 BKN035
     FM261300 01012KT P6SM SCT035=

USA.gov is the U.S. government's official web portal to all federal, state and local government web resources and services.